createdAt,value
2022-10-13T00:00:18.461Z,8.53
2022-10-13T00:02:21.451Z,8.61
2022-10-13T00:04:24.396Z,8.64
2022-10-13T00:06:27.261Z,8.67
2022-10-13T00:08:30.410Z,8.66
2022-10-13T00:10:36.918Z,8.67
2022-10-13T00:12:39.983Z,8.67
2022-10-13T00:14:43.072Z,8.67
2022-10-13T00:16:45.778Z,8.65
2022-10-13T00:18:49.273Z,8.65
2022-10-13T00:20:51.984Z,8.70
2022-10-13T00:22:54.655Z,8.67
2022-10-13T00:24:57.397Z,8.68
2022-10-13T00:27:00.098Z,8.66
2022-10-13T00:29:02.852Z,8.65
2022-10-13T00:31:23.216Z,8.68
2022-10-13T00:33:25.934Z,8.66
2022-10-13T00:35:28.663Z,8.59
2022-10-13T00:37:31.371Z,8.62
2022-10-13T00:39:34.292Z,8.64
2022-10-13T00:41:36.969Z,8.61
2022-10-13T00:43:58.338Z,8.62
2022-10-13T00:46:01.049Z,8.56
2022-10-13T00:48:03.910Z,8.61
2022-10-13T00:50:14.928Z,8.62
2022-10-13T00:52:20.437Z,8.61
2022-10-13T00:54:25.312Z,8.59
2022-10-13T00:56:29.450Z,8.60
2022-10-13T00:58:33.121Z,8.60
2022-10-13T01:00:36.180Z,8.58
2022-10-13T01:02:39.135Z,8.56
2022-10-13T01:04:45.844Z,8.57
2022-10-13T01:06:49.595Z,8.56
2022-10-13T01:08:52.199Z,8.53
2022-10-13T01:11:32.229Z,8.53
2022-10-13T01:13:42.003Z,8.50
2022-10-13T01:15:59.531Z,8.48
2022-10-13T01:18:11.187Z,8.49
2022-10-13T01:20:37.325Z,8.49
2022-10-13T01:23:01.020Z,8.48
2022-10-13T01:25:29.925Z,8.51
2022-10-13T01:27:44.442Z,8.51
2022-10-13T01:30:05.210Z,8.54
2022-10-13T01:32:26.267Z,8.56
2022-10-13T01:34:48.400Z,8.53
2022-10-13T01:37:09.638Z,8.53
2022-10-13T01:39:32.542Z,8.53
2022-10-13T01:41:40.639Z,8.54
2022-10-13T01:44:03.007Z,8.51
2022-10-13T01:46:30.266Z,8.50
2022-10-13T01:48:36.071Z,8.49
2022-10-13T01:50:39.861Z,8.46
2022-10-13T01:52:43.546Z,8.46
2022-10-13T01:54:54.005Z,8.46
2022-10-13T01:56:57.479Z,8.46
2022-10-13T01:59:06.953Z,8.45
2022-10-13T02:01:28.573Z,8.44
2022-10-13T02:03:39.056Z,8.42
2022-10-13T02:05:49.272Z,8.43
2022-10-13T02:08:22.727Z,8.42
2022-10-13T02:10:50.111Z,8.42
2022-10-13T02:13:01.333Z,8.40
2022-10-13T02:15:07.556Z,8.39
2022-10-13T02:17:13.753Z,8.38
2022-10-13T02:19:18.618Z,8.40
2022-10-13T02:21:21.524Z,8.40
2022-10-13T02:23:24.775Z,8.38
2022-10-13T02:25:28.768Z,8.39
2022-10-13T02:27:31.898Z,8.41
2022-10-13T02:29:34.778Z,8.39
2022-10-13T02:31:38.214Z,8.42
2022-10-13T02:33:40.889Z,8.42
2022-10-13T02:35:44.362Z,8.42
2022-10-13T02:37:47.479Z,8.41
2022-10-13T02:39:50.138Z,8.41
2022-10-13T02:41:53.070Z,8.41
2022-10-13T02:43:55.812Z,8.41
2022-10-13T02:45:58.558Z,8.43
2022-10-13T02:48:01.235Z,8.42
2022-10-13T02:50:04.991Z,8.42
2022-10-13T02:52:07.693Z,8.43
2022-10-13T02:54:10.483Z,8.40
2022-10-13T02:56:13.570Z,8.41
2022-10-13T02:58:16.294Z,8.43
2022-10-13T03:00:20.107Z,8.40
2022-10-13T03:02:23.491Z,8.42
2022-10-13T03:04:26.304Z,8.43
2022-10-13T03:06:29.026Z,8.40
2022-10-13T03:08:35.164Z,8.42
2022-10-13T03:10:38.054Z,8.39
2022-10-13T03:12:40.757Z,8.36
2022-10-13T03:14:43.871Z,8.37
2022-10-13T03:16:46.492Z,8.34
2022-10-13T03:18:49.249Z,8.32
2022-10-13T03:21:06.820Z,8.28
2022-10-13T03:23:09.602Z,8.25
2022-10-13T03:25:12.338Z,8.22
2022-10-13T03:27:15.879Z,8.18
2022-10-13T03:29:18.961Z,8.16
2022-10-13T03:31:21.781Z,8.13
2022-10-13T03:33:24.454Z,8.08
2022-10-13T03:35:27.652Z,8.06
2022-10-13T03:37:30.928Z,7.91
2022-10-13T03:39:33.608Z,8.01
2022-10-13T03:41:36.306Z,8.03
2022-10-13T03:43:39.933Z,8.03
2022-10-13T03:45:42.542Z,8.02
2022-10-13T03:47:45.360Z,8.01
2022-10-13T03:49:48.024Z,8.01
2022-10-13T03:51:50.693Z,8.00
2022-10-13T03:53:54.115Z,8.00
2022-10-13T03:55:57.154Z,7.97
2022-10-13T03:57:59.984Z,7.97
2022-10-13T04:00:04.111Z,8.03
2022-10-13T04:02:07.865Z,8.01
2022-10-13T04:04:12.587Z,7.96
2022-10-13T04:06:15.341Z,7.91
2022-10-13T04:08:18.225Z,7.91
2022-10-13T04:10:21.153Z,7.89
2022-10-13T04:12:24.051Z,7.88
2022-10-13T04:14:27.196Z,7.88
2022-10-13T04:16:31.671Z,7.92
2022-10-13T04:18:34.695Z,7.89
2022-10-13T04:20:39.705Z,7.87
2022-10-13T04:22:42.781Z,7.84
2022-10-13T04:24:45.503Z,7.87
2022-10-13T04:26:48.269Z,7.84
2022-10-13T04:28:52.274Z,7.86
2022-10-13T04:30:55.030Z,7.87
2022-10-13T04:32:57.753Z,7.85
2022-10-13T04:35:00.986Z,7.92
2022-10-13T04:37:03.650Z,7.91
2022-10-13T04:39:06.301Z,7.90
2022-10-13T04:41:10.042Z,7.86
2022-10-13T04:43:12.679Z,7.95
2022-10-13T04:45:15.355Z,7.95
2022-10-13T04:47:18.014Z,7.94
2022-10-13T04:49:20.763Z,7.96
2022-10-13T04:51:25.315Z,7.95
2022-10-13T04:53:38.326Z,7.94
2022-10-13T04:55:41.051Z,7.93
2022-10-13T04:57:43.766Z,7.90
2022-10-13T04:59:46.843Z,7.90
2022-10-13T05:01:49.581Z,7.86
2022-10-13T05:03:56.854Z,7.86
2022-10-13T05:05:59.582Z,7.86
2022-10-13T05:08:02.270Z,7.87
2022-10-13T05:10:05.555Z,7.84
2022-10-13T05:12:08.230Z,7.79
2022-10-13T05:14:10.914Z,7.84
2022-10-13T05:16:15.366Z,7.87
2022-10-13T05:18:18.530Z,7.84
2022-10-13T05:20:21.307Z,7.80
2022-10-13T05:22:23.940Z,7.79
2022-10-13T05:24:36.686Z,7.78
2022-10-13T05:26:40.297Z,7.78
2022-10-13T05:28:44.215Z,7.77
2022-10-13T05:30:47.109Z,7.80
2022-10-13T05:32:53.714Z,7.79
2022-10-13T05:34:56.637Z,7.83
2022-10-13T05:37:00.411Z,7.86
2022-10-13T05:39:05.879Z,7.87
2022-10-13T05:41:14.027Z,7.87
2022-10-13T05:43:16.719Z,7.84
2022-10-13T05:45:21.807Z,7.82
2022-10-13T05:47:28.364Z,7.79
2022-10-13T05:49:31.141Z,7.82
2022-10-13T05:51:40.027Z,7.81
2022-10-13T05:53:51.037Z,7.81
2022-10-13T05:55:58.568Z,7.80
2022-10-13T05:58:01.907Z,7.82
2022-10-13T06:00:09.350Z,7.83
2022-10-13T06:02:16.187Z,7.79
2022-10-13T06:04:25.387Z,7.82
2022-10-13T06:06:31.504Z,7.79
2022-10-13T06:08:34.527Z,7.76
2022-10-13T06:10:38.296Z,7.71
2022-10-13T06:12:41.452Z,7.73
2022-10-13T06:14:44.139Z,7.73
2022-10-13T06:16:46.859Z,7.76
2022-10-13T06:18:49.521Z,7.75
2022-10-13T06:20:52.230Z,7.71
2022-10-13T06:22:57.823Z,7.70
2022-10-13T06:25:00.527Z,7.76
2022-10-13T06:27:03.193Z,7.78
2022-10-13T06:29:06.050Z,7.77
2022-10-13T06:31:08.743Z,7.72
2022-10-13T06:33:11.378Z,7.71
2022-10-13T06:35:14.747Z,7.72
2022-10-13T06:37:17.520Z,7.65
2022-10-13T06:39:20.206Z,7.63
2022-10-13T06:41:22.874Z,7.65
2022-10-13T06:43:31.734Z,7.71
2022-10-13T06:45:38.661Z,7.74
2022-10-13T06:47:41.474Z,7.77
2022-10-13T06:49:44.122Z,7.77
2022-10-13T06:51:46.709Z,7.80
2022-10-13T06:53:49.350Z,7.83
2022-10-13T06:55:52.690Z,7.83
2022-10-13T06:57:55.490Z,7.90
2022-10-13T06:59:58.078Z,7.88
2022-10-13T07:02:00.826Z,7.97
2022-10-13T07:04:03.438Z,8.01
2022-10-13T07:06:06.953Z,8.09
2022-10-13T07:08:09.612Z,8.09
2022-10-13T07:10:12.349Z,8.07
2022-10-13T07:12:15.077Z,8.05
2022-10-13T07:14:17.698Z,8.11
2022-10-13T07:16:20.259Z,8.18
2022-10-13T07:18:22.829Z,8.26
2022-10-13T07:20:26.012Z,8.26
2022-10-13T07:22:28.677Z,8.34
2022-10-13T07:24:31.394Z,8.35
2022-10-13T07:26:34.385Z,8.39
2022-10-13T07:28:37.687Z,8.42
2022-10-13T07:30:40.630Z,8.44
2022-10-13T07:32:43.319Z,8.43
2022-10-13T07:34:45.953Z,8.44
2022-10-13T07:36:48.621Z,8.47
2022-10-13T07:38:51.281Z,8.47
2022-10-13T07:40:53.844Z,8.38
2022-10-13T07:42:57.834Z,8.38
2022-10-13T07:45:00.492Z,8.35
2022-10-13T07:47:06.217Z,8.33
2022-10-13T07:49:11.177Z,8.33
2022-10-13T07:51:16.362Z,8.34
2022-10-13T07:53:19.186Z,8.33
2022-10-13T07:55:21.786Z,8.38
2022-10-13T07:57:27.238Z,8.42
2022-10-13T07:59:32.119Z,8.45
2022-10-13T08:01:34.777Z,8.44
2022-10-13T08:03:37.918Z,8.44
2022-10-13T08:05:40.700Z,8.45
2022-10-13T08:07:43.260Z,8.43
2022-10-13T08:09:45.940Z,8.42
2022-10-13T08:11:49.107Z,8.49
2022-10-13T08:13:52.942Z,8.48
2022-10-13T08:15:55.562Z,8.54
2022-10-13T08:17:58.231Z,8.55
2022-10-13T08:20:00.916Z,8.56
2022-10-13T08:22:07.702Z,8.55
2022-10-13T08:24:14.871Z,8.52
2022-10-13T08:26:24.501Z,8.49
2022-10-13T08:28:29.191Z,8.46
2022-10-13T08:30:32.537Z,8.48
2022-10-13T08:32:35.373Z,8.46
2022-10-13T08:34:38.331Z,8.55
2022-10-13T08:36:41.452Z,8.55
2022-10-13T08:38:45.126Z,8.57
2022-10-13T08:40:49.633Z,8.59
2022-10-13T08:42:55.563Z,8.59
2022-10-13T08:45:28.820Z,8.63
2022-10-13T08:47:28.061Z,8.58
2022-10-13T08:49:31.541Z,8.59
2022-10-13T08:51:34.825Z,8.56
2022-10-13T08:53:41.582Z,8.54
2022-10-13T08:55:55.469Z,8.52
2022-10-13T08:57:59.121Z,8.57
2022-10-13T09:00:03.420Z,8.52
2022-10-13T09:02:22.453Z,8.59
2022-10-13T09:04:41.802Z,8.61
2022-10-13T09:06:57.047Z,8.59
2022-10-13T09:09:08.900Z,8.62
2022-10-13T09:11:12.287Z,8.67
2022-10-13T09:13:15.466Z,8.67
2022-10-13T09:15:18.773Z,8.69
2022-10-13T09:17:29.540Z,8.72
2022-10-13T09:19:36.565Z,8.73
2022-10-13T09:21:39.839Z,8.68
2022-10-13T09:23:42.651Z,8.68
2022-10-13T09:25:49.451Z,8.66
2022-10-13T09:27:58.125Z,8.64
2022-10-13T09:30:35.349Z,8.72
2022-10-13T09:32:38.383Z,8.79
2022-10-13T09:34:41.694Z,8.85
2022-10-13T09:37:03.616Z,8.89
2022-10-13T09:39:17.351Z,8.87
2022-10-13T09:41:22.106Z,8.87
2022-10-13T09:43:36.502Z,9.02
2022-10-13T09:45:43.456Z,9.12
2022-10-13T09:48:02.626Z,9.16
2022-10-13T09:50:19.242Z,9.15
2022-10-13T09:52:22.720Z,9.03
2022-10-13T09:54:34.397Z,9.10
2022-10-13T09:56:46.661Z,9.16
2022-10-13T09:59:22.000Z,9.12
2022-10-13T10:01:28.688Z,9.15
2022-10-13T10:03:35.701Z,9.12
2022-10-13T10:05:49.887Z,9.14
2022-10-13T10:07:53.716Z,9.08
2022-10-13T10:10:16.390Z,8.98
2022-10-13T10:12:27.559Z,8.92
2022-10-13T10:14:36.450Z,8.88
2022-10-13T10:16:46.847Z,8.92
2022-10-13T10:18:58.918Z,8.95
2022-10-13T10:21:07.949Z,8.86
2022-10-13T10:23:37.174Z,8.86
2022-10-13T10:25:59.458Z,8.94
2022-10-13T10:28:32.862Z,9.01
2022-10-13T10:30:43.789Z,8.94
2022-10-13T10:33:04.580Z,8.97
2022-10-13T10:35:19.341Z,8.95
2022-10-13T10:37:51.330Z,8.89
2022-10-13T10:40:31.416Z,8.88
2022-10-13T10:42:58.984Z,8.88
2022-10-13T10:45:04.702Z,8.88
2022-10-13T10:47:21.040Z,8.89
2022-10-13T10:49:31.502Z,8.83
2022-10-13T10:51:38.186Z,8.89
2022-10-13T10:54:09.685Z,9.00
2022-10-13T10:56:32.333Z,9.00
2022-10-13T10:58:37.681Z,9.00
2022-10-13T11:00:55.882Z,9.03
2022-10-13T11:03:04.109Z,9.04
2022-10-13T11:05:06.897Z,9.05
2022-10-13T11:07:24.839Z,9.06
2022-10-13T11:09:59.915Z,9.08
2022-10-13T11:12:02.582Z,9.10
2022-10-13T11:14:05.119Z,9.13
2022-10-13T11:16:32.406Z,9.10
2022-10-13T11:19:06.087Z,9.08
2022-10-13T11:21:09.383Z,9.12
2022-10-13T11:23:14.893Z,9.13
2022-10-13T11:25:42.141Z,9.15
2022-10-13T11:27:45.285Z,9.08
2022-10-13T11:29:49.128Z,9.15
2022-10-13T11:31:55.287Z,9.21
2022-10-13T11:34:00.916Z,9.18
2022-10-13T11:36:40.087Z,9.14
2022-10-13T11:38:43.726Z,9.00
2022-10-13T11:41:08.929Z,8.92
2022-10-13T11:43:30.142Z,8.90
2022-10-13T11:45:47.010Z,8.91
2022-10-13T11:48:03.907Z,8.92
2022-10-13T11:50:39.973Z,8.95
2022-10-13T11:52:56.612Z,8.93
2022-10-13T11:55:11.687Z,8.87
2022-10-13T11:57:24.818Z,8.89
2022-10-13T11:59:33.958Z,8.84
2022-10-13T12:01:36.587Z,8.83
2022-10-13T12:03:44.223Z,8.77
2022-10-13T12:05:49.334Z,8.77
2022-10-13T12:07:54.913Z,8.76
2022-10-13T12:09:58.578Z,8.78
2022-10-13T12:12:13.970Z,8.75
2022-10-13T12:14:24.321Z,8.76
2022-10-13T12:16:28.869Z,8.69
2022-10-13T12:18:38.379Z,8.75
2022-10-13T12:20:41.131Z,8.71
2022-10-13T12:22:54.530Z,8.70
2022-10-13T12:25:06.557Z,8.66
2022-10-13T12:27:22.184Z,8.65
2022-10-13T12:29:27.927Z,8.59
2022-10-13T12:31:40.862Z,8.56
2022-10-13T12:33:43.651Z,8.55
2022-10-13T12:35:46.474Z,8.56
2022-10-13T12:37:49.594Z,8.52
2022-10-13T12:39:52.611Z,8.53
2022-10-13T12:41:56.490Z,8.53
2022-10-13T12:44:02.409Z,8.47
2022-10-13T12:46:09.634Z,8.46
2022-10-13T12:48:36.286Z,8.44
2022-10-13T12:50:39.281Z,8.38
2022-10-13T12:52:42.032Z,8.38
2022-10-13T12:55:18.246Z,8.39
2022-10-13T12:57:27.277Z,8.37
2022-10-13T12:59:31.158Z,8.35
2022-10-13T13:01:35.427Z,8.34
2022-10-13T13:03:39.287Z,8.29
2022-10-13T13:05:51.843Z,8.25
2022-10-13T13:07:55.523Z,8.24
2022-10-13T13:10:19.570Z,8.21
2022-10-13T13:12:26.578Z,8.21
2022-10-13T13:14:39.381Z,8.18
2022-10-13T13:16:42.090Z,8.14
2022-10-13T13:18:46.281Z,8.17
2022-10-13T13:20:49.367Z,8.17
2022-10-13T13:22:52.152Z,8.05
2022-10-13T13:24:54.919Z,8.15
2022-10-13T13:26:57.701Z,8.14
2022-10-13T13:29:00.551Z,8.12
2022-10-13T13:31:03.681Z,8.08
2022-10-13T13:33:06.518Z,8.09
2022-10-13T13:35:10.203Z,8.08
2022-10-13T13:37:17.733Z,8.07
2022-10-13T13:39:20.778Z,8.06
2022-10-13T13:41:27.785Z,8.05
2022-10-13T13:43:30.433Z,8.04
2022-10-13T13:45:34.108Z,8.04
2022-10-13T13:47:37.159Z,8.00
2022-10-13T13:49:40.213Z,7.98
2022-10-13T13:51:43.026Z,8.00
2022-10-13T13:53:46.129Z,7.87
2022-10-13T13:55:49.118Z,8.00
2022-10-13T13:57:52.158Z,7.99
2022-10-13T13:59:54.925Z,7.94
2022-10-13T14:01:57.626Z,7.91
2022-10-13T14:04:00.383Z,7.93
2022-10-13T14:06:03.140Z,7.92
2022-10-13T14:08:06.025Z,7.83
2022-10-13T14:10:10.112Z,7.85
2022-10-13T14:12:13.382Z,7.87
2022-10-13T14:14:16.369Z,7.81
2022-10-13T14:16:19.029Z,7.77
2022-10-13T14:18:21.630Z,7.79
2022-10-13T14:20:24.477Z,7.75
2022-10-13T14:22:27.328Z,7.72
2022-10-13T14:24:30.274Z,7.68
2022-10-13T14:26:34.063Z,7.69
2022-10-13T14:28:36.878Z,7.63
2022-10-13T14:30:40.555Z,7.65
2022-10-13T14:32:43.425Z,7.62
2022-10-13T14:34:46.250Z,7.63
2022-10-13T14:36:48.969Z,7.63
2022-10-13T14:38:52.089Z,7.55
2022-10-13T14:40:59.955Z,7.59
2022-10-13T14:43:02.594Z,7.60
2022-10-13T14:45:06.844Z,7.58
2022-10-13T14:47:09.659Z,7.56
2022-10-13T14:49:12.502Z,7.56
2022-10-13T14:51:15.496Z,7.58
2022-10-13T14:53:18.159Z,7.60
2022-10-13T14:55:20.761Z,7.55
2022-10-13T14:57:23.709Z,7.51
2022-10-13T14:59:26.752Z,7.53
2022-10-13T15:01:30.565Z,7.48
2022-10-13T15:03:33.284Z,7.42
2022-10-13T15:05:35.988Z,7.50
2022-10-13T15:07:41.096Z,7.50
2022-10-13T15:09:53.201Z,7.49
2022-10-13T15:12:06.889Z,7.48
2022-10-13T15:14:09.964Z,7.45
2022-10-13T15:16:19.230Z,7.47
2022-10-13T15:18:25.768Z,7.47
2022-10-13T15:20:31.104Z,7.45
2022-10-13T15:22:33.733Z,7.48
2022-10-13T15:24:36.294Z,7.44
2022-10-13T15:26:38.907Z,7.38
2022-10-13T15:28:47.345Z,7.43
2022-10-13T15:30:50.642Z,7.42
2022-10-13T15:32:53.323Z,7.41
2022-10-13T15:34:56.565Z,7.44
2022-10-13T15:36:59.269Z,7.41
2022-10-13T15:39:01.895Z,7.44
2022-10-13T15:41:06.235Z,7.40
2022-10-13T15:43:09.263Z,7.44
2022-10-13T15:45:12.140Z,7.40
2022-10-13T15:47:17.184Z,7.42
2022-10-13T15:49:20.231Z,7.37
2022-10-13T15:51:24.490Z,7.40
2022-10-13T15:53:27.159Z,7.39
2022-10-13T15:55:30.006Z,7.37
2022-10-13T15:57:32.741Z,7.37
2022-10-13T15:59:35.398Z,7.40
2022-10-13T16:01:38.088Z,7.36
2022-10-13T16:03:41.146Z,7.38
2022-10-13T16:05:45.591Z,7.37
2022-10-13T16:07:48.863Z,7.36
2022-10-13T16:09:51.521Z,7.37
2022-10-13T16:11:54.862Z,7.39
2022-10-13T16:13:57.424Z,7.41
2022-10-13T16:16:01.407Z,7.41
2022-10-13T16:18:04.468Z,7.41
2022-10-13T16:20:08.158Z,7.39
2022-10-13T16:22:10.916Z,7.38
2022-10-13T16:24:13.450Z,7.38
2022-10-13T16:26:19.991Z,7.37
2022-10-13T16:28:23.252Z,7.40
2022-10-13T16:30:25.903Z,7.40
2022-10-13T16:32:28.470Z,7.35
2022-10-13T16:34:31.214Z,7.36
2022-10-13T16:36:34.146Z,7.35
2022-10-13T16:38:37.053Z,7.30
2022-10-13T16:40:40.228Z,7.37
2022-10-13T16:42:43.453Z,7.37
2022-10-13T16:44:46.034Z,7.32
2022-10-13T16:46:50.422Z,7.36
2022-10-13T16:48:53.042Z,7.32
2022-10-13T16:50:55.677Z,7.31
2022-10-13T16:52:59.819Z,7.30
2022-10-13T16:55:03.198Z,7.24
2022-10-13T16:57:06.660Z,7.12
2022-10-13T16:59:10.658Z,7.12
2022-10-13T17:01:13.580Z,7.08
2022-10-13T17:03:16.414Z,7.06
2022-10-13T17:05:19.103Z,6.96
2022-10-13T17:07:21.875Z,6.96
2022-10-13T17:09:24.650Z,6.90
2022-10-13T17:11:30.480Z,6.83
2022-10-13T17:13:36.153Z,6.83
2022-10-13T17:15:39.216Z,6.82
2022-10-13T17:17:42.361Z,6.77
2022-10-13T17:19:45.571Z,6.72
2022-10-13T17:21:48.783Z,6.71
2022-10-13T17:23:51.792Z,6.64
2022-10-13T17:25:55.383Z,6.60
2022-10-13T17:27:58.309Z,6.58
2022-10-13T17:30:01.293Z,6.59
2022-10-13T17:32:06.418Z,6.53
2022-10-13T17:34:09.594Z,6.48
2022-10-13T17:36:21.297Z,6.44
2022-10-13T17:38:24.242Z,6.44
2022-10-13T17:40:27.374Z,6.39
2022-10-13T17:42:30.089Z,6.42
2022-10-13T17:44:32.971Z,6.42
2022-10-13T17:46:38.690Z,6.35
2022-10-13T17:48:43.065Z,6.34
2022-10-13T17:50:46.075Z,6.34
2022-10-13T17:52:48.866Z,6.30
2022-10-13T17:54:51.503Z,6.29
2022-10-13T17:56:57.105Z,6.24
2022-10-13T17:59:02.030Z,6.29
2022-10-13T18:01:13.526Z,6.25
2022-10-13T18:03:16.499Z,6.25
2022-10-13T18:05:19.333Z,6.24
2022-10-13T18:07:22.481Z,6.22
2022-10-13T18:09:25.658Z,6.24
2022-10-13T18:11:28.386Z,6.23
2022-10-13T18:13:31.083Z,6.17
2022-10-13T18:15:38.356Z,6.18
2022-10-13T18:17:41.000Z,6.13
2022-10-13T18:19:43.957Z,6.10
2022-10-13T18:21:46.586Z,6.12
2022-10-13T18:23:50.113Z,6.08
2022-10-13T18:25:52.769Z,6.09
2022-10-13T18:27:55.562Z,6.09
2022-10-13T18:29:59.521Z,6.07
2022-10-13T18:32:02.459Z,6.06
2022-10-13T18:34:07.758Z,6.06
2022-10-13T18:36:25.616Z,6.04
2022-10-13T18:38:28.548Z,6.05
2022-10-13T18:40:31.181Z,6.07
2022-10-13T18:42:33.794Z,6.05
2022-10-13T18:44:36.423Z,6.02
2022-10-13T18:46:39.873Z,6.02
2022-10-13T18:48:42.577Z,6.02
2022-10-13T18:50:45.271Z,6.01
2022-10-13T18:52:48.030Z,6.04
2022-10-13T18:54:51.208Z,6.01
2022-10-13T18:56:54.066Z,6.03
2022-10-13T18:58:59.830Z,6.02
2022-10-13T19:01:05.257Z,6.03
2022-10-13T19:03:08.432Z,6.04
2022-10-13T19:05:11.369Z,6.04
2022-10-13T19:07:13.956Z,6.06
2022-10-13T19:09:17.569Z,6.05
2022-10-13T19:11:21.602Z,6.03
2022-10-13T19:13:26.265Z,6.01
2022-10-13T19:15:28.816Z,6.01
2022-10-13T19:17:31.456Z,6.01
2022-10-13T19:19:34.323Z,6.04
2022-10-13T19:21:38.382Z,6.01
2022-10-13T19:23:41.422Z,6.04
2022-10-13T19:25:44.385Z,6.03
2022-10-13T19:27:47.113Z,6.03
2022-10-13T19:29:52.477Z,6.01
2022-10-13T19:31:55.049Z,6.02
2022-10-13T19:33:58.637Z,5.99
2022-10-13T19:36:01.231Z,5.98
2022-10-13T19:38:03.894Z,5.96
2022-10-13T19:40:08.661Z,5.97
2022-10-13T19:42:11.372Z,6.00
2022-10-13T19:44:15.840Z,5.99
2022-10-13T19:46:18.657Z,6.00
2022-10-13T19:48:21.326Z,6.00
2022-10-13T19:50:24.373Z,5.98
2022-10-13T19:52:27.182Z,5.99
2022-10-13T19:54:33.765Z,5.98
2022-10-13T19:56:36.789Z,5.97
2022-10-13T19:58:39.465Z,5.93
2022-10-13T20:00:46.392Z,5.97
2022-10-13T20:02:49.229Z,5.92
2022-10-13T20:04:52.206Z,5.93
2022-10-13T20:06:55.067Z,5.93
2022-10-13T20:08:59.131Z,5.91
2022-10-13T20:11:09.935Z,5.92
2022-10-13T20:13:12.610Z,5.93
2022-10-13T20:15:15.493Z,5.92
2022-10-13T20:17:18.411Z,5.94
2022-10-13T20:19:21.225Z,5.90
2022-10-13T20:21:24.968Z,5.91
2022-10-13T20:23:27.677Z,5.93
2022-10-13T20:25:30.599Z,5.94
2022-10-13T20:27:33.497Z,5.93
2022-10-13T20:29:36.192Z,5.96
2022-10-13T20:31:38.819Z,5.92
2022-10-13T20:33:42.368Z,5.97
2022-10-13T20:35:45.399Z,5.98
2022-10-13T20:37:47.994Z,5.98
2022-10-13T20:39:51.116Z,5.93
2022-10-13T20:41:53.823Z,5.92
2022-10-13T20:43:59.018Z,5.91
2022-10-13T20:46:03.861Z,5.91
2022-10-13T20:48:06.604Z,5.95
2022-10-13T20:50:09.309Z,5.92
2022-10-13T20:52:11.987Z,5.97
2022-10-13T20:54:15.655Z,5.95
2022-10-13T20:56:22.124Z,5.95
2022-10-13T20:58:29.637Z,5.94
2022-10-13T21:00:32.265Z,5.96
2022-10-13T21:02:34.939Z,5.97
2022-10-13T21:04:37.590Z,5.90
2022-10-13T21:06:41.872Z,5.93
2022-10-13T21:08:46.043Z,5.91
2022-10-13T21:10:50.047Z,5.90
2022-10-13T21:12:53.322Z,5.91
2022-10-13T21:14:56.065Z,5.96
2022-10-13T21:16:58.919Z,5.94
2022-10-13T21:19:02.181Z,5.93
2022-10-13T21:21:07.298Z,5.93
2022-10-13T21:23:11.782Z,5.91
2022-10-13T21:25:14.741Z,5.90
2022-10-13T21:27:17.530Z,5.88
2022-10-13T21:29:20.225Z,5.95
2022-10-13T21:31:24.322Z,5.93
2022-10-13T21:33:26.961Z,5.96
2022-10-13T21:35:29.588Z,5.97
2022-10-13T21:37:39.127Z,5.91
2022-10-13T21:39:41.762Z,5.92
2022-10-13T21:41:44.483Z,5.95
2022-10-13T21:43:47.581Z,5.91
2022-10-13T21:45:50.226Z,5.92
2022-10-13T21:47:52.932Z,5.93
2022-10-13T21:49:55.572Z,5.91
2022-10-13T21:51:58.274Z,5.95
2022-10-13T21:54:06.501Z,5.95
2022-10-13T21:56:11.936Z,5.95
2022-10-13T21:58:14.563Z,5.99
2022-10-13T22:00:17.337Z,5.95
2022-10-13T22:02:20.088Z,5.96
2022-10-13T22:04:22.722Z,5.97
2022-10-13T22:06:26.162Z,5.98
2022-10-13T22:08:38.197Z,6.00
2022-10-13T22:10:41.781Z,5.97
2022-10-13T22:12:44.845Z,5.94
2022-10-13T22:14:47.512Z,6.00
2022-10-13T22:16:51.850Z,5.97
2022-10-13T22:18:57.263Z,5.97
2022-10-13T22:21:04.691Z,5.95
2022-10-13T22:23:07.397Z,5.92
2022-10-13T22:25:10.137Z,5.91
2022-10-13T22:27:13.784Z,5.95
2022-10-13T22:29:19.738Z,5.95
2022-10-13T22:31:22.487Z,5.91
2022-10-13T22:33:25.076Z,5.90
2022-10-13T22:35:27.787Z,5.93
2022-10-13T22:37:31.063Z,5.91
2022-10-13T22:39:33.893Z,5.89
2022-10-13T22:41:36.540Z,5.88
2022-10-13T22:43:39.422Z,5.89
2022-10-13T22:45:52.533Z,5.90
2022-10-13T22:47:55.150Z,5.87
2022-10-13T22:49:57.695Z,5.90
2022-10-13T22:52:00.686Z,5.85
2022-10-13T22:54:04.147Z,5.90
2022-10-13T22:56:09.166Z,5.94
2022-10-13T22:58:11.942Z,5.91
2022-10-13T23:00:15.127Z,5.92
2022-10-13T23:02:17.709Z,5.92
2022-10-13T23:04:20.501Z,5.91
2022-10-13T23:06:28.483Z,5.93
2022-10-13T23:08:31.693Z,5.96
2022-10-13T23:10:34.465Z,5.92
2022-10-13T23:12:37.151Z,5.93
2022-10-13T23:14:39.956Z,5.94
2022-10-13T23:16:43.121Z,5.91
2022-10-13T23:18:45.958Z,5.96
2022-10-13T23:20:51.052Z,5.95
2022-10-13T23:22:55.886Z,5.96
2022-10-13T23:24:58.627Z,5.92
2022-10-13T23:27:01.489Z,5.97
2022-10-13T23:29:05.411Z,5.94
2022-10-13T23:31:17.937Z,5.95
2022-10-13T23:33:20.575Z,5.92
2022-10-13T23:35:23.513Z,5.90
2022-10-13T23:37:26.146Z,5.96
2022-10-13T23:39:29.779Z,5.95
2022-10-13T23:41:33.014Z,5.97
2022-10-13T23:43:36.127Z,5.97
2022-10-13T23:45:38.766Z,5.97
2022-10-13T23:47:41.430Z,5.99
2022-10-13T23:49:43.976Z,6.03
2022-10-13T23:51:46.559Z,5.96
2022-10-13T23:53:50.082Z,5.96
2022-10-13T23:55:52.791Z,5.98
2022-10-13T23:57:55.953Z,5.99
2022-10-13T23:59:58.742Z,5.97
